sensor_id;sensor_type;location;lat;lon;timestamp;temperature;humidity
1976;DHT22;988;48.016;7.800;2023-04-02T00:02:54;9.30;99.90
1976;DHT22;988;48.016;7.800;2023-04-02T00:10:52;9.30;99.90
1976;DHT22;988;48.016;7.800;2023-04-02T00:13:22;9.30;99.90
1976;DHT22;988;48.016;7.800;2023-04-02T00:15:50;9.40;99.90
1976;DHT22;988;48.016;7.800;2023-04-02T00:18:20;9.40;99.90
1976;DHT22;988;48.016;7.800;2023-04-02T00:20:53;9.40;99.90
1976;DHT22;988;48.016;7.800;2023-04-02T00:23:21;9.50;99.90
1976;DHT22;988;48.016;7.800;2023-04-02T00:25:47;9.40;99.90
1976;DHT22;988;48.016;7.800;2023-04-02T00:28:21;9.30;99.90
1976;DHT22;988;48.016;7.800;2023-04-02T00:30:52;9.30;99.90
1976;DHT22;988;48.016;7.800;2023-04-02T00:33:21;9.40;99.90
1976;DHT22;988;48.016;7.800;2023-04-02T00:35:49;9.30;99.90
1976;DHT22;988;48.016;7.800;2023-04-02T00:40:50;9.20;99.90
1976;DHT22;988;48.016;7.800;2023-04-02T00:43:17;9.10;99.90
1976;DHT22;988;48.016;7.800;2023-04-02T00:45:46;9.10;99.90
1976;DHT22;988;48.016;7.800;2023-04-02T00:50:59;9.10;99.90
1976;DHT22;988;48.016;7.800;2023-04-02T00:53:28;9.10;99.90
1976;DHT22;988;48.016;7.800;2023-04-02T00:55:56;9.10;99.90
1976;DHT22;988;48.016;7.800;2023-04-02T00:58:34;9.10;99.90
1976;DHT22;988;48.016;7.800;2023-04-02T01:01:01;9.10;99.90
1976;DHT22;988;48.016;7.800;2023-04-02T01:03:35;9.20;99.90
1976;DHT22;988;48.016;7.800;2023-04-02T01:06:15;9.10;99.90
1976;DHT22;988;48.016;7.800;2023-04-02T01:09:07;9.00;99.90
1976;DHT22;988;48.016;7.800;2023-04-02T01:15:16;9.00;99.90
1976;DHT22;988;48.016;7.800;2023-04-02T01:17:34;9.00;99.90
1976;DHT22;988;48.016;7.800;2023-04-02T01:23:07;9.10;99.90
1976;DHT22;988;48.016;7.800;2023-04-02T01:25:44;9.10;99.90
1976;DHT22;988;48.016;7.800;2023-04-02T01:28:23;9.10;99.90
1976;DHT22;988;48.016;7.800;2023-04-02T01:30:55;9.20;99.90
1976;DHT22;988;48.016;7.800;2023-04-02T01:33:28;9.10;99.90
1976;DHT22;988;48.016;7.800;2023-04-02T01:41:38;9.10;99.90
1976;DHT22;988;48.016;7.800;2023-04-02T01:44:08;9.20;99.90
1976;DHT22;988;48.016;7.800;2023-04-02T01:46:40;9.20;99.90
1976;DHT22;988;48.016;7.800;2023-04-02T01:49:24;9.20;99.90
1976;DHT22;988;48.016;7.800;2023-04-02T01:51:53;9.20;99.90
1976;DHT22;988;48.016;7.800;2023-04-02T01:54:21;9.20;99.90
1976;DHT22;988;48.016;7.800;2023-04-02T01:56:47;9.20;99.90
1976;DHT22;988;48.016;7.800;2023-04-02T01:59:19;9.20;99.90
1976;DHT22;988;48.016;7.800;2023-04-02T02:02:08;9.30;99.90
1976;DHT22;988;48.016;7.800;2023-04-02T02:04:35;9.20;99.90
1976;DHT22;988;48.016;7.800;2023-04-02T02:07:01;9.30;99.90
1976;DHT22;988;48.016;7.800;2023-04-02T02:09:31;9.20;99.90
1976;DHT22;988;48.016;7.800;2023-04-02T02:11:59;9.20;99.90
1976;DHT22;988;48.016;7.800;2023-04-02T02:14:28;9.20;99.90
1976;DHT22;988;48.016;7.800;2023-04-02T02:16:56;9.30;99.90
1976;DHT22;988;48.016;7.800;2023-04-02T02:19:54;9.20;99.90
1976;DHT22;988;48.016;7.800;2023-04-02T02:24:53;9.10;99.90
1976;DHT22;988;48.016;7.800;2023-04-02T02:32:32;9.00;99.90
1976;DHT22;988;48.016;7.800;2023-04-02T02:35:14;9.00;99.90
1976;DHT22;988;48.016;7.800;2023-04-02T02:37:45;8.90;99.90
1976;DHT22;988;48.016;7.800;2023-04-02T02:40:23;8.70;99.90
1976;DHT22;988;48.016;7.800;2023-04-02T02:42:56;8.90;99.90
1976;DHT22;988;48.016;7.800;2023-04-02T02:45:25;8.70;99.90
1976;DHT22;988;48.016;7.800;2023-04-02T02:47:52;8.80;99.90
1976;DHT22;988;48.016;7.800;2023-04-02T02:50:24;8.90;99.90
1976;DHT22;988;48.016;7.800;2023-04-02T02:52:53;9.00;99.90
1976;DHT22;988;48.016;7.800;2023-04-02T02:55:39;8.80;99.90
1976;DHT22;988;48.016;7.800;2023-04-02T02:58:08;8.80;99.90
1976;DHT22;988;48.016;7.800;2023-04-02T03:00:36;8.80;99.90
1976;DHT22;988;48.016;7.800;2023-04-02T03:03:06;8.80;99.90
1976;DHT22;988;48.016;7.800;2023-04-02T03:05:33;8.60;99.90
1976;DHT22;988;48.016;7.800;2023-04-02T03:08:02;8.40;99.90
1976;DHT22;988;48.016;7.800;2023-04-02T03:13:29;8.40;99.90
1976;DHT22;988;48.016;7.800;2023-04-02T03:19:03;8.70;99.90
1976;DHT22;988;48.016;7.800;2023-04-02T03:21:35;8.40;99.90
1976;DHT22;988;48.016;7.800;2023-04-02T03:24:28;8.40;99.90
1976;DHT22;988;48.016;7.800;2023-04-02T03:27:12;8.40;99.90
1976;DHT22;988;48.016;7.800;2023-04-02T03:29:41;8.40;99.90
1976;DHT22;988;48.016;7.800;2023-04-02T03:32:16;8.50;99.90
1976;DHT22;988;48.016;7.800;2023-04-02T03:34:58;8.40;99.90
1976;DHT22;988;48.016;7.800;2023-04-02T03:37:35;8.40;99.90
1976;DHT22;988;48.016;7.800;2023-04-02T03:40:16;8.40;99.90
1976;DHT22;988;48.016;7.800;2023-04-02T03:42:47;8.50;99.90
1976;DHT22;988;48.016;7.800;2023-04-02T03:45:21;8.50;99.90
1976;DHT22;988;48.016;7.800;2023-04-02T03:53:43;8.50;99.90
1976;DHT22;988;48.016;7.800;2023-04-02T03:59:24;8.50;99.90
1976;DHT22;988;48.016;7.800;2023-04-02T04:01:59;8.60;99.90
1976;DHT22;988;48.016;7.800;2023-04-02T04:04:27;8.60;99.90
1976;DHT22;988;48.016;7.800;2023-04-02T04:06:54;8.40;99.90
1976;DHT22;988;48.016;7.800;2023-04-02T04:09:37;8.60;99.90
1976;DHT22;988;48.016;7.800;2023-04-02T04:12:26;8.70;99.90
1976;DHT22;988;48.016;7.800;2023-04-02T04:15:18;8.60;99.90
1976;DHT22;988;48.016;7.800;2023-04-02T04:20:50;8.70;99.90
1976;DHT22;988;48.016;7.800;2023-04-02T04:23:26;8.50;99.90
1976;DHT22;988;48.016;7.800;2023-04-02T04:26:18;8.50;99.90
1976;DHT22;988;48.016;7.800;2023-04-02T04:31:29;8.60;99.90
1976;DHT22;988;48.016;7.800;2023-04-02T04:33:59;8.60;99.90
1976;DHT22;988;48.016;7.800;2023-04-02T04:36:35;8.80;99.90
1976;DHT22;988;48.016;7.800;2023-04-02T04:39:10;8.80;99.90
1976;DHT22;988;48.016;7.800;2023-04-02T04:41:40;8.90;99.90
1976;DHT22;988;48.016;7.800;2023-04-02T04:44:37;8.70;99.90
1976;DHT22;988;48.016;7.800;2023-04-02T04:46:56;8.70;99.90
1976;DHT22;988;48.016;7.800;2023-04-02T04:49:49;8.80;99.90
1976;DHT22;988;48.016;7.800;2023-04-02T04:52:23;8.70;99.90
1976;DHT22;988;48.016;7.800;2023-04-02T04:54:50;8.50;99.90
1976;DHT22;988;48.016;7.800;2023-04-02T04:57:35;8.60;99.90
1976;DHT22;988;48.016;7.800;2023-04-02T05:00:17;8.70;99.90
1976;DHT22;988;48.016;7.800;2023-04-02T05:02:58;8.70;99.90
1976;DHT22;988;48.016;7.800;2023-04-02T05:05:30;8.60;99.90
1976;DHT22;988;48.016;7.800;2023-04-02T05:08:13;8.70;99.90
1976;DHT22;988;48.016;7.800;2023-04-02T05:10:45;8.70;99.90
1976;DHT22;988;48.016;7.800;2023-04-02T05:13:18;8.50;99.90
1976;DHT22;988;48.016;7.800;2023-04-02T05:16:03;8.70;99.90
1976;DHT22;988;48.016;7.800;2023-04-02T05:18:48;8.60;99.90
1976;DHT22;988;48.016;7.800;2023-04-02T05:24:37;8.40;99.90
1976;DHT22;988;48.016;7.800;2023-04-02T05:32:36;8.70;99.90
1976;DHT22;988;48.016;7.800;2023-04-02T05:35:05;8.90;99.90
1976;DHT22;988;48.016;7.800;2023-04-02T05:37:32;8.60;99.90
1976;DHT22;988;48.016;7.800;2023-04-02T05:40:09;8.80;99.90
1976;DHT22;988;48.016;7.800;2023-04-02T05:42:38;9.10;99.90
1976;DHT22;988;48.016;7.800;2023-04-02T05:47:42;9.00;99.90
1976;DHT22;988;48.016;7.800;2023-04-02T05:58:35;9.10;99.90
1976;DHT22;988;48.016;7.800;2023-04-02T06:01:22;9.20;99.90
1976;DHT22;988;48.016;7.800;2023-04-02T06:03:55;8.80;99.90
1976;DHT22;988;48.016;7.800;2023-04-02T06:06:34;9.00;99.90
1976;DHT22;988;48.016;7.800;2023-04-02T06:09:06;9.30;99.90
1976;DHT22;988;48.016;7.800;2023-04-02T06:11:44;9.10;99.90
1976;DHT22;988;48.016;7.800;2023-04-02T06:14:12;9.10;99.90
1976;DHT22;988;48.016;7.800;2023-04-02T06:16:38;9.20;99.90
1976;DHT22;988;48.016;7.800;2023-04-02T06:19:09;9.40;99.90
1976;DHT22;988;48.016;7.800;2023-04-02T06:21:46;9.40;99.90
1976;DHT22;988;48.016;7.800;2023-04-02T06:24:17;9.80;99.90
1976;DHT22;988;48.016;7.800;2023-04-02T06:26:53;9.90;99.90
1976;DHT22;988;48.016;7.800;2023-04-02T06:29:29;10.10;99.90
1976;DHT22;988;48.016;7.800;2023-04-02T06:32:00;10.20;99.90
1976;DHT22;988;48.016;7.800;2023-04-02T06:34:28;10.10;99.90
1976;DHT22;988;48.016;7.800;2023-04-02T06:37:00;10.00;99.90
1976;DHT22;988;48.016;7.800;2023-04-02T06:39:26;10.10;99.90
1976;DHT22;988;48.016;7.800;2023-04-02T06:42:00;10.20;99.90
1976;DHT22;988;48.016;7.800;2023-04-02T06:44:31;10.60;99.90
1976;DHT22;988;48.016;7.800;2023-04-02T06:47:10;10.20;99.90
1976;DHT22;988;48.016;7.800;2023-04-02T06:52:22;10.10;99.90
1976;DHT22;988;48.016;7.800;2023-04-02T06:54:48;10.10;99.90
1976;DHT22;988;48.016;7.800;2023-04-02T06:57:14;10.10;99.90
1976;DHT22;988;48.016;7.800;2023-04-02T06:59:40;10.50;99.90
1976;DHT22;988;48.016;7.800;2023-04-02T07:02:29;10.40;99.90
1976;DHT22;988;48.016;7.800;2023-04-02T07:05:03;10.10;99.90
1976;DHT22;988;48.016;7.800;2023-04-02T07:07:29;10.30;99.90
1976;DHT22;988;48.016;7.800;2023-04-02T07:09:54;10.20;99.90
1976;DHT22;988;48.016;7.800;2023-04-02T07:12:24;10.40;99.90
1976;DHT22;988;48.016;7.800;2023-04-02T07:14:51;10.40;99.90
1976;DHT22;988;48.016;7.800;2023-04-02T07:17:18;10.60;99.90
1976;DHT22;988;48.016;7.800;2023-04-02T07:19:45;11.00;99.90
1976;DHT22;988;48.016;7.800;2023-04-02T07:22:15;11.30;99.90
1976;DHT22;988;48.016;7.800;2023-04-02T07:24:40;11.30;99.90
1976;DHT22;988;48.016;7.800;2023-04-02T07:27:06;11.40;99.90
1976;DHT22;988;48.016;7.800;2023-04-02T07:29:31;11.70;99.90
1976;DHT22;988;48.016;7.800;2023-04-02T07:31:57;11.50;99.90
1976;DHT22;988;48.016;7.800;2023-04-02T07:34:23;11.60;99.90
1976;DHT22;988;48.016;7.800;2023-04-02T07:36:48;12.10;99.90
1976;DHT22;988;48.016;7.800;2023-04-02T07:39:14;11.70;99.90
1976;DHT22;988;48.016;7.800;2023-04-02T07:41:54;11.80;99.90
1976;DHT22;988;48.016;7.800;2023-04-02T07:44:19;12.20;99.90
1976;DHT22;988;48.016;7.800;2023-04-02T07:46:45;11.80;99.90
1976;DHT22;988;48.016;7.800;2023-04-02T07:49:11;11.90;99.90
1976;DHT22;988;48.016;7.800;2023-04-02T07:51:36;12.30;99.90
1976;DHT22;988;48.016;7.800;2023-04-02T07:54:02;12.70;99.90
1976;DHT22;988;48.016;7.800;2023-04-02T07:56:29;12.50;99.90
1976;DHT22;988;48.016;7.800;2023-04-02T07:58:54;12.60;99.90
1976;DHT22;988;48.016;7.800;2023-04-02T08:01:25;11.90;99.90
1976;DHT22;988;48.016;7.800;2023-04-02T08:03:52;12.30;99.90
1976;DHT22;988;48.016;7.800;2023-04-02T08:06:19;12.40;99.90
1976;DHT22;988;48.016;7.800;2023-04-02T08:08:45;12.60;99.90
1976;DHT22;988;48.016;7.800;2023-04-02T08:11:11;12.40;99.90
1976;DHT22;988;48.016;7.800;2023-04-02T08:13:36;13.20;99.90
1976;DHT22;988;48.016;7.800;2023-04-02T08:16:04;13.30;99.90
1976;DHT22;988;48.016;7.800;2023-04-02T08:18:30;12.80;99.90
1976;DHT22;988;48.016;7.800;2023-04-02T08:20:56;13.10;99.90
1976;DHT22;988;48.016;7.800;2023-04-02T08:23:22;13.00;99.90
1976;DHT22;988;48.016;7.800;2023-04-02T08:25:48;12.80;99.90
1976;DHT22;988;48.016;7.800;2023-04-02T08:28:14;12.90;99.90
1976;DHT22;988;48.016;7.800;2023-04-02T08:30:41;12.60;99.90
1976;DHT22;988;48.016;7.800;2023-04-02T08:33:06;12.80;99.90
1976;DHT22;988;48.016;7.800;2023-04-02T08:35:32;13.50;99.90
1976;DHT22;988;48.016;7.800;2023-04-02T08:37:58;13.30;99.90
1976;DHT22;988;48.016;7.800;2023-04-02T08:40:38;13.00;99.90
1976;DHT22;988;48.016;7.800;2023-04-02T08:48:31;13.00;99.90
1976;DHT22;988;48.016;7.800;2023-04-02T08:50:58;13.80;99.90
1976;DHT22;988;48.016;7.800;2023-04-02T08:53:30;14.80;99.90
1976;DHT22;988;48.016;7.800;2023-04-02T08:56:14;15.00;99.90
1976;DHT22;988;48.016;7.800;2023-04-02T08:58:56;14.80;99.90
1976;DHT22;988;48.016;7.800;2023-04-02T09:01:34;13.90;99.90
1976;DHT22;988;48.016;7.800;2023-04-02T09:04:04;14.30;99.90
1976;DHT22;988;48.016;7.800;2023-04-02T09:06:32;14.50;99.90
1976;DHT22;988;48.016;7.800;2023-04-02T09:08:58;15.50;99.90
1976;DHT22;988;48.016;7.800;2023-04-02T09:14:04;16.00;99.90
1976;DHT22;988;48.016;7.800;2023-04-02T09:16:43;16.00;99.90
1976;DHT22;988;48.016;7.800;2023-04-02T09:19:30;15.90;98.60
1976;DHT22;988;48.016;7.800;2023-04-02T09:25:12;16.00;99.80
1976;DHT22;988;48.016;7.800;2023-04-02T09:27:38;16.50;97.60
1976;DHT22;988;48.016;7.800;2023-04-02T09:32:48;16.60;94.70
1976;DHT22;988;48.016;7.800;2023-04-02T09:35:25;15.20;95.80
1976;DHT22;988;48.016;7.800;2023-04-02T09:38:10;15.50;97.90
1976;DHT22;988;48.016;7.800;2023-04-02T09:45:58;20.80;79.70
1976;DHT22;988;48.016;7.800;2023-04-02T09:48:27;20.20;77.50
1976;DHT22;988;48.016;7.800;2023-04-02T09:51:24;19.80;79.70
1976;DHT22;988;48.016;7.800;2023-04-02T09:54:06;18.90;79.60
1976;DHT22;988;48.016;7.800;2023-04-02T09:56:34;18.30;79.50
1976;DHT22;988;48.016;7.800;2023-04-02T10:01:44;18.80;83.20
1976;DHT22;988;48.016;7.800;2023-04-02T10:04:35;19.50;79.40
1976;DHT22;988;48.016;7.800;2023-04-02T10:07:01;19.60;73.80
1976;DHT22;988;48.016;7.800;2023-04-02T10:09:28;18.10;79.90
1976;DHT22;988;48.016;7.800;2023-04-02T10:11:55;20.80;73.50
1976;DHT22;988;48.016;7.800;2023-04-02T10:14:29;23.40;65.80
1976;DHT22;988;48.016;7.800;2023-04-02T10:16:58;25.50;58.80
1976;DHT22;988;48.016;7.800;2023-04-02T10:19:44;27.40;54.90
1976;DHT22;988;48.016;7.800;2023-04-02T10:22:16;28.20;51.50
1976;DHT22;988;48.016;7.800;2023-04-02T10:24:42;26.90;49.70
1976;DHT22;988;48.016;7.800;2023-04-02T10:30:18;25.90;50.10
1976;DHT22;988;48.016;7.800;2023-04-02T10:35:45;27.20;47.40
1976;DHT22;988;48.016;7.800;2023-04-02T10:38:34;28.80;47.40
1976;DHT22;988;48.016;7.800;2023-04-02T10:52:20;26.80;45.70
1976;DHT22;988;48.016;7.800;2023-04-02T10:54:54;26.10;48.40
1976;DHT22;988;48.016;7.800;2023-04-02T10:59:51;26.50;47.20
1976;DHT22;988;48.016;7.800;2023-04-02T11:02:27;28.40;46.10
1976;DHT22;988;48.016;7.800;2023-04-02T11:04:57;28.20;44.30
1976;DHT22;988;48.016;7.800;2023-04-02T11:07:27;27.50;45.00
1976;DHT22;988;48.016;7.800;2023-04-02T11:09:56;28.90;44.50
1976;DHT22;988;48.016;7.800;2023-04-02T11:12:48;29.70;41.50
1976;DHT22;988;48.016;7.800;2023-04-02T11:15:17;31.80;40.50
1976;DHT22;988;48.016;7.800;2023-04-02T11:17:44;29.90;41.70
1976;DHT22;988;48.016;7.800;2023-04-02T11:23:18;29.40;43.20
1976;DHT22;988;48.016;7.800;2023-04-02T11:25:44;28.70;42.20
1976;DHT22;988;48.016;7.800;2023-04-02T11:28:25;30.10;41.60
1976;DHT22;988;48.016;7.800;2023-04-02T11:30:54;30.20;40.10
1976;DHT22;988;48.016;7.800;2023-04-02T11:33:40;27.90;41.90
1976;DHT22;988;48.016;7.800;2023-04-02T11:39:10;26.50;43.80
1976;DHT22;988;48.016;7.800;2023-04-02T11:42:05;25.20;44.10
1976;DHT22;988;48.016;7.800;2023-04-02T11:44:45;25.50;45.10
1976;DHT22;988;48.016;7.800;2023-04-02T11:47:19;25.30;46.10
1976;DHT22;988;48.016;7.800;2023-04-02T11:52:33;28.80;42.20
1976;DHT22;988;48.016;7.800;2023-04-02T11:55:21;24.50;46.10
1976;DHT22;988;48.016;7.800;2023-04-02T11:57:56;21.80;51.50
1976;DHT22;988;48.016;7.800;2023-04-02T12:03:36;22.20;51.90
1976;DHT22;988;48.016;7.800;2023-04-02T12:06:43;25.10;48.50
1976;DHT22;988;48.016;7.800;2023-04-02T12:09:33;27.60;45.00
1976;DHT22;988;48.016;7.800;2023-04-02T12:12:16;27.30;43.10
1976;DHT22;988;48.016;7.800;2023-04-02T12:14:44;28.00;42.30
1976;DHT22;988;48.016;7.800;2023-04-02T12:19:51;25.90;43.70
1976;DHT22;988;48.016;7.800;2023-04-02T12:22:20;26.10;43.20
1976;DHT22;988;48.016;7.800;2023-04-02T12:24:47;27.00;43.00
1976;DHT22;988;48.016;7.800;2023-04-02T12:27:18;29.30;40.50
1976;DHT22;988;48.016;7.800;2023-04-02T12:29:48;31.20;38.10
1976;DHT22;988;48.016;7.800;2023-04-02T12:34:51;30.50;37.40
1976;DHT22;988;48.016;7.800;2023-04-02T12:37:25;27.90;41.30
1976;DHT22;988;48.016;7.800;2023-04-02T12:39:54;26.00;43.60
1976;DHT22;988;48.016;7.800;2023-04-02T12:42:25;26.90;45.40
1976;DHT22;988;48.016;7.800;2023-04-02T12:44:51;26.10;44.20
1976;DHT22;988;48.016;7.800;2023-04-02T12:47:17;25.10;45.40
1976;DHT22;988;48.016;7.800;2023-04-02T12:49:43;25.10;45.80
1976;DHT22;988;48.016;7.800;2023-04-02T12:52:17;24.60;46.90
1976;DHT22;988;48.016;7.800;2023-04-02T12:55:16;22.20;50.00
1976;DHT22;988;48.016;7.800;2023-04-02T12:57:43;21.90;53.40
1976;DHT22;988;48.016;7.800;2023-04-02T13:02:48;28.60;38.90
1976;DHT22;988;48.016;7.800;2023-04-02T13:05:32;27.50;41.80
1976;DHT22;988;48.016;7.800;2023-04-02T13:07:58;26.30;41.60
1976;DHT22;988;48.016;7.800;2023-04-02T13:10:25;23.10;44.60
1976;DHT22;988;48.016;7.800;2023-04-02T13:13:02;22.90;47.90
1976;DHT22;988;48.016;7.800;2023-04-02T13:15:30;21.80;49.20
1976;DHT22;988;48.016;7.800;2023-04-02T13:20:42;24.90;45.00
1976;DHT22;988;48.016;7.800;2023-04-02T13:25:56;23.20;47.70
1976;DHT22;988;48.016;7.800;2023-04-02T13:28:23;22.90;47.60
1976;DHT22;988;48.016;7.800;2023-04-02T13:30:48;22.10;48.90
1976;DHT22;988;48.016;7.800;2023-04-02T13:33:14;22.20;49.40
1976;DHT22;988;48.016;7.800;2023-04-02T13:35:41;22.10;48.90
1976;DHT22;988;48.016;7.800;2023-04-02T13:38:07;21.80;53.10
1976;DHT22;988;48.016;7.800;2023-04-02T13:40:34;21.60;53.80
1976;DHT22;988;48.016;7.800;2023-04-02T13:43:00;21.50;54.60
1976;DHT22;988;48.016;7.800;2023-04-02T13:45:30;20.50;56.00
1976;DHT22;988;48.016;7.800;2023-04-02T13:47:56;20.00;56.70
1976;DHT22;988;48.016;7.800;2023-04-02T13:50:26;19.50;58.10
1976;DHT22;988;48.016;7.800;2023-04-02T13:52:52;18.80;59.30
1976;DHT22;988;48.016;7.800;2023-04-02T13:55:20;18.30;60.00
1976;DHT22;988;48.016;7.800;2023-04-02T13:57:47;17.50;62.00
1976;DHT22;988;48.016;7.800;2023-04-02T14:00:14;17.00;64.30
1976;DHT22;988;48.016;7.800;2023-04-02T14:02:45;16.60;64.90
1976;DHT22;988;48.016;7.800;2023-04-02T14:05:38;16.80;65.70
1976;DHT22;988;48.016;7.800;2023-04-02T14:08:38;16.70;66.50
1976;DHT22;988;48.016;7.800;2023-04-02T14:19:45;17.40;69.80
1976;DHT22;988;48.016;7.800;2023-04-02T14:39:41;18.00;70.50
1976;DHT22;988;48.016;7.800;2023-04-02T14:42:21;17.80;72.20
1976;DHT22;988;48.016;7.800;2023-04-02T14:47:56;17.00;74.00
1976;DHT22;988;48.016;7.800;2023-04-02T14:50:36;16.80;75.50
1976;DHT22;988;48.016;7.800;2023-04-02T14:53:10;16.70;75.70
1976;DHT22;988;48.016;7.800;2023-04-02T14:55:40;16.40;76.50
1976;DHT22;988;48.016;7.800;2023-04-02T14:58:38;16.30;79.80
1976;DHT22;988;48.016;7.800;2023-04-02T15:01:30;16.50;81.00
1976;DHT22;988;48.016;7.800;2023-04-02T15:04:07;16.30;82.60
1976;DHT22;988;48.016;7.800;2023-04-02T15:06:40;15.90;85.20
1976;DHT22;988;48.016;7.800;2023-04-02T15:09:27;15.10;92.60
1976;DHT22;988;48.016;7.800;2023-04-02T15:12:27;15.10;96.00
1976;DHT22;988;48.016;7.800;2023-04-02T15:15:18;14.70;99.90
1976;DHT22;988;48.016;7.800;2023-04-02T15:17:44;14.50;99.90
1976;DHT22;988;48.016;7.800;2023-04-02T15:20:17;14.20;99.90
1976;DHT22;988;48.016;7.800;2023-04-02T15:23:06;14.30;99.90
1976;DHT22;988;48.016;7.800;2023-04-02T15:25:36;14.00;99.90
1976;DHT22;988;48.016;7.800;2023-04-02T15:28:26;14.00;99.90
1976;DHT22;988;48.016;7.800;2023-04-02T15:30:55;13.70;99.90
1976;DHT22;988;48.016;7.800;2023-04-02T15:38:56;13.40;99.90
1976;DHT22;988;48.016;7.800;2023-04-02T15:41:26;13.50;99.90
1976;DHT22;988;48.016;7.800;2023-04-02T15:49:34;13.70;99.90
1976;DHT22;988;48.016;7.800;2023-04-02T15:52:14;13.90;99.90
1976;DHT22;988;48.016;7.800;2023-04-02T15:58:07;14.40;99.90
1976;DHT22;988;48.016;7.800;2023-04-02T16:03:19;13.90;99.90
1976;DHT22;988;48.016;7.800;2023-04-02T16:09:17;14.20;99.90
1976;DHT22;988;48.016;7.800;2023-04-02T16:11:50;13.80;99.90
1976;DHT22;988;48.016;7.800;2023-04-02T16:14:30;13.90;99.90
1976;DHT22;988;48.016;7.800;2023-04-02T16:17:02;13.40;99.90
1976;DHT22;988;48.016;7.800;2023-04-02T16:19:32;13.30;99.90
1976;DHT22;988;48.016;7.800;2023-04-02T16:22:11;13.60;99.90
1976;DHT22;988;48.016;7.800;2023-04-02T16:24:39;13.60;99.90
1976;DHT22;988;48.016;7.800;2023-04-02T16:30:23;14.10;99.90
1976;DHT22;988;48.016;7.800;2023-04-02T16:33:17;14.50;99.90
1976;DHT22;988;48.016;7.800;2023-04-02T16:36:02;14.70;99.90
1976;DHT22;988;48.016;7.800;2023-04-02T16:38:52;14.80;99.90
1976;DHT22;988;48.016;7.800;2023-04-02T16:41:33;14.70;99.90
1976;DHT22;988;48.016;7.800;2023-04-02T16:52:57;14.60;99.90
1976;DHT22;988;48.016;7.800;2023-04-02T17:01:26;14.20;99.90
1976;DHT22;988;48.016;7.800;2023-04-02T17:04:00;14.50;99.90
1976;DHT22;988;48.016;7.800;2023-04-02T17:06:41;14.70;99.90
1976;DHT22;988;48.016;7.800;2023-04-02T17:09:41;14.70;99.90
1976;DHT22;988;48.016;7.800;2023-04-02T17:12:18;14.50;99.90
1976;DHT22;988;48.016;7.800;2023-04-02T17:14:55;14.60;99.90
1976;DHT22;988;48.016;7.800;2023-04-02T17:17:23;14.40;99.90
1976;DHT22;988;48.016;7.800;2023-04-02T17:19:52;14.30;99.90
1976;DHT22;988;48.016;7.800;2023-04-02T17:22:21;14.10;99.90
1976;DHT22;988;48.016;7.800;2023-04-02T17:24:57;13.80;99.90
1976;DHT22;988;48.016;7.800;2023-04-02T17:27:30;14.10;99.90
1976;DHT22;988;48.016;7.800;2023-04-02T17:30:33;13.80;99.90
1976;DHT22;988;48.016;7.800;2023-04-02T17:32:48;14.00;99.90
1976;DHT22;988;48.016;7.800;2023-04-02T17:38:08;13.80;99.90
1976;DHT22;988;48.016;7.800;2023-04-02T17:43:41;13.70;99.90
1976;DHT22;988;48.016;7.800;2023-04-02T17:46:25;13.70;99.90
1976;DHT22;988;48.016;7.800;2023-04-02T17:51:55;13.50;99.90
1976;DHT22;988;48.016;7.800;2023-04-02T17:57:22;13.30;99.90
1976;DHT22;988;48.016;7.800;2023-04-02T18:00:08;13.20;99.90
1976;DHT22;988;48.016;7.800;2023-04-02T18:08:11;12.90;99.90
1976;DHT22;988;48.016;7.800;2023-04-02T18:13:35;12.80;99.90
1976;DHT22;988;48.016;7.800;2023-04-02T18:32:23;12.30;99.90
1976;DHT22;988;48.016;7.800;2023-04-02T18:37:37;12.60;99.90
1976;DHT22;988;48.016;7.800;2023-04-02T18:45:47;12.30;99.90
1976;DHT22;988;48.016;7.800;2023-04-02T18:50:45;12.00;99.90
1976;DHT22;988;48.016;7.800;2023-04-02T18:53:13;12.00;99.90
1976;DHT22;988;48.016;7.800;2023-04-02T18:55:50;11.90;99.90
1976;DHT22;988;48.016;7.800;2023-04-02T18:59:09;11.90;99.90
1976;DHT22;988;48.016;7.800;2023-04-02T19:01:47;11.60;99.90
1976;DHT22;988;48.016;7.800;2023-04-02T19:04:18;11.90;99.90
1976;DHT22;988;48.016;7.800;2023-04-02T19:06:52;11.50;99.90
1976;DHT22;988;48.016;7.800;2023-04-02T19:09:23;11.30;99.90
1976;DHT22;988;48.016;7.800;2023-04-02T19:11:51;11.30;99.90
1976;DHT22;988;48.016;7.800;2023-04-02T19:14:19;11.40;99.90
1976;DHT22;988;48.016;7.800;2023-04-02T19:19:35;11.40;99.90
1976;DHT22;988;48.016;7.800;2023-04-02T19:33:15;10.50;99.90
1976;DHT22;988;48.016;7.800;2023-04-02T19:36:06;10.60;99.90
1976;DHT22;988;48.016;7.800;2023-04-02T19:44:41;10.80;99.90
1976;DHT22;988;48.016;7.800;2023-04-02T19:47:09;10.90;99.90
1976;DHT22;988;48.016;7.800;2023-04-02T19:49:35;10.80;99.90
1976;DHT22;988;48.016;7.800;2023-04-02T19:52:01;11.10;99.90
1976;DHT22;988;48.016;7.800;2023-04-02T19:54:26;11.10;99.90
1976;DHT22;988;48.016;7.800;2023-04-02T19:56:52;10.40;99.90
1976;DHT22;988;48.016;7.800;2023-04-02T19:59:18;10.30;99.90
1976;DHT22;988;48.016;7.800;2023-04-02T20:01:43;10.00;99.90
1976;DHT22;988;48.016;7.800;2023-04-02T20:04:09;10.40;99.90
1976;DHT22;988;48.016;7.800;2023-04-02T20:06:35;10.40;99.90
1976;DHT22;988;48.016;7.800;2023-04-02T20:09:02;10.40;99.90
1976;DHT22;988;48.016;7.800;2023-04-02T20:11:28;10.20;99.90
1976;DHT22;988;48.016;7.800;2023-04-02T20:13:53;10.10;99.90
1976;DHT22;988;48.016;7.800;2023-04-02T20:16:20;10.20;99.90
1976;DHT22;988;48.016;7.800;2023-04-02T20:18:47;9.80;99.90
1976;DHT22;988;48.016;7.800;2023-04-02T20:21:12;9.50;99.90
1976;DHT22;988;48.016;7.800;2023-04-02T20:23:38;9.60;99.90
1976;DHT22;988;48.016;7.800;2023-04-02T20:26:05;9.50;99.90
1976;DHT22;988;48.016;7.800;2023-04-02T20:28:31;9.50;99.90
1976;DHT22;988;48.016;7.800;2023-04-02T20:31:14;9.40;99.90
1976;DHT22;988;48.016;7.800;2023-04-02T20:33:41;9.60;99.90
1976;DHT22;988;48.016;7.800;2023-04-02T20:36:10;9.60;99.90
1976;DHT22;988;48.016;7.800;2023-04-02T20:38:37;9.90;99.90
1976;DHT22;988;48.016;7.800;2023-04-02T20:41:05;10.20;99.90
1976;DHT22;988;48.016;7.800;2023-04-02T20:43:30;10.10;99.90
1976;DHT22;988;48.016;7.800;2023-04-02T20:45:58;9.70;99.90
1976;DHT22;988;48.016;7.800;2023-04-02T20:48:27;9.50;99.90
1976;DHT22;988;48.016;7.800;2023-04-02T20:50:55;9.70;99.90
1976;DHT22;988;48.016;7.800;2023-04-02T20:53:21;9.60;99.90
1976;DHT22;988;48.016;7.800;2023-04-02T20:55:47;9.40;99.90
1976;DHT22;988;48.016;7.800;2023-04-02T20:58:17;9.20;99.90
1976;DHT22;988;48.016;7.800;2023-04-02T21:00:44;9.30;99.90
1976;DHT22;988;48.016;7.800;2023-04-02T21:03:10;9.00;99.90
1976;DHT22;988;48.016;7.800;2023-04-02T21:05:46;9.10;99.90
1976;DHT22;988;48.016;7.800;2023-04-02T21:08:12;8.90;99.90
1976;DHT22;988;48.016;7.800;2023-04-02T21:10:38;8.80;99.90
1976;DHT22;988;48.016;7.800;2023-04-02T21:13:05;8.90;99.90
1976;DHT22;988;48.016;7.800;2023-04-02T21:15:31;8.80;99.90
1976;DHT22;988;48.016;7.800;2023-04-02T21:17:56;8.40;99.90
1976;DHT22;988;48.016;7.800;2023-04-02T21:20:22;8.40;99.90
1976;DHT22;988;48.016;7.800;2023-04-02T21:22:48;8.40;99.90
1976;DHT22;988;48.016;7.800;2023-04-02T21:25:13;8.60;99.90
1976;DHT22;988;48.016;7.800;2023-04-02T21:27:39;8.60;99.90
1976;DHT22;988;48.016;7.800;2023-04-02T21:30:05;8.60;99.90
1976;DHT22;988;48.016;7.800;2023-04-02T21:32:31;8.70;99.90
1976;DHT22;988;48.016;7.800;2023-04-02T21:34:57;8.50;99.90
1976;DHT22;988;48.016;7.800;2023-04-02T21:37:22;8.70;99.90